sensor_id;sensor_type;location;lat;lon;timestamp;temperature;humidity
81524;DHT22;70954;49.500;10.416;2024-01-11T00:00:56;-3.40;60.60
81524;DHT22;70954;49.500;10.416;2024-01-11T00:03:21;-3.40;60.70
81524;DHT22;70954;49.500;10.416;2024-01-11T00:05:47;-3.40;60.60
81524;DHT22;70954;49.500;10.416;2024-01-11T00:08:12;-3.40;60.60
81524;DHT22;70954;49.500;10.416;2024-01-11T00:10:37;-3.40;60.60
81524;DHT22;70954;49.500;10.416;2024-01-11T00:13:03;-3.40;60.60
81524;DHT22;70954;49.500;10.416;2024-01-11T00:15:28;-3.40;60.60
81524;DHT22;70954;49.500;10.416;2024-01-11T00:17:54;-3.40;60.50
81524;DHT22;70954;49.500;10.416;2024-01-11T00:20:19;-3.40;60.60
81524;DHT22;70954;49.500;10.416;2024-01-11T00:22:45;-3.30;60.60
81524;DHT22;70954;49.500;10.416;2024-01-11T00:25:10;-3.30;60.60
81524;DHT22;70954;49.500;10.416;2024-01-11T00:27:35;-3.30;60.60
81524;DHT22;70954;49.500;10.416;2024-01-11T00:30:01;-3.30;60.60
81524;DHT22;70954;49.500;10.416;2024-01-11T00:32:26;-3.30;60.60
81524;DHT22;70954;49.500;10.416;2024-01-11T00:34:52;-3.30;60.60
81524;DHT22;70954;49.500;10.416;2024-01-11T00:37:17;-3.30;60.50
81524;DHT22;70954;49.500;10.416;2024-01-11T00:39:43;-3.30;60.40
81524;DHT22;70954;49.500;10.416;2024-01-11T00:42:08;-3.30;60.30
81524;DHT22;70954;49.500;10.416;2024-01-11T00:44:34;-3.30;60.30
81524;DHT22;70954;49.500;10.416;2024-01-11T00:46:59;-3.30;60.20
81524;DHT22;70954;49.500;10.416;2024-01-11T00:49:24;-3.40;60.20
81524;DHT22;70954;49.500;10.416;2024-01-11T00:51:50;-3.40;60.20
81524;DHT22;70954;49.500;10.416;2024-01-11T00:54:15;-3.40;60.10
81524;DHT22;70954;49.500;10.416;2024-01-11T00:56:41;-3.40;60.10
81524;DHT22;70954;49.500;10.416;2024-01-11T00:59:06;-3.40;60.00
81524;DHT22;70954;49.500;10.416;2024-01-11T01:01:32;-3.40;60.10
81524;DHT22;70954;49.500;10.416;2024-01-11T01:03:58;-3.50;60.20
81524;DHT22;70954;49.500;10.416;2024-01-11T01:06:23;-3.50;60.20
81524;DHT22;70954;49.500;10.416;2024-01-11T01:08:49;-3.50;60.30
81524;DHT22;70954;49.500;10.416;2024-01-11T01:11:14;-3.50;60.30
81524;DHT22;70954;49.500;10.416;2024-01-11T01:13:40;-3.50;60.30
81524;DHT22;70954;49.500;10.416;2024-01-11T01:16:05;-3.60;60.30
81524;DHT22;70954;49.500;10.416;2024-01-11T01:18:30;-3.60;60.30
81524;DHT22;70954;49.500;10.416;2024-01-11T01:20:56;-3.60;60.30
81524;DHT22;70954;49.500;10.416;2024-01-11T01:23:21;-3.60;60.30
81524;DHT22;70954;49.500;10.416;2024-01-11T01:25:47;-3.60;60.30
81524;DHT22;70954;49.500;10.416;2024-01-11T01:28:12;-3.70;60.40
81524;DHT22;70954;49.500;10.416;2024-01-11T01:30:38;-3.70;60.40
81524;DHT22;70954;49.500;10.416;2024-01-11T01:33:03;-3.80;60.30
81524;DHT22;70954;49.500;10.416;2024-01-11T01:35:29;-3.80;60.50
81524;DHT22;70954;49.500;10.416;2024-01-11T01:37:55;-3.80;60.50
81524;DHT22;70954;49.500;10.416;2024-01-11T01:40:20;-3.80;60.50
81524;DHT22;70954;49.500;10.416;2024-01-11T01:42:46;-3.80;60.50
81524;DHT22;70954;49.500;10.416;2024-01-11T01:45:12;-3.90;60.60
81524;DHT22;70954;49.500;10.416;2024-01-11T01:47:40;-3.90;60.60
81524;DHT22;70954;49.500;10.416;2024-01-11T01:50:06;-3.90;60.60
81524;DHT22;70954;49.500;10.416;2024-01-11T01:52:33;-3.90;60.60
81524;DHT22;70954;49.500;10.416;2024-01-11T01:55:00;-4.00;60.70
81524;DHT22;70954;49.500;10.416;2024-01-11T01:57:26;-4.00;60.80
81524;DHT22;70954;49.500;10.416;2024-01-11T01:59:52;-4.00;60.80
81524;DHT22;70954;49.500;10.416;2024-01-11T02:02:19;-4.00;60.80
81524;DHT22;70954;49.500;10.416;2024-01-11T02:04:45;-4.00;60.80
81524;DHT22;70954;49.500;10.416;2024-01-11T02:07:11;-4.00;60.80
81524;DHT22;70954;49.500;10.416;2024-01-11T02:09:37;-4.00;60.80
81524;DHT22;70954;49.500;10.416;2024-01-11T02:12:02;-4.00;60.80
81524;DHT22;70954;49.500;10.416;2024-01-11T02:14:28;-4.00;60.80
81524;DHT22;70954;49.500;10.416;2024-01-11T02:16:53;-4.00;60.90
81524;DHT22;70954;49.500;10.416;2024-01-11T02:19:19;-4.10;60.80
81524;DHT22;70954;49.500;10.416;2024-01-11T02:21:46;-4.10;60.80
81524;DHT22;70954;49.500;10.416;2024-01-11T02:24:13;-4.10;60.80
81524;DHT22;70954;49.500;10.416;2024-01-11T02:27:01;-4.10;60.90
81524;DHT22;70954;49.500;10.416;2024-01-11T02:29:27;-4.10;60.90
81524;DHT22;70954;49.500;10.416;2024-01-11T02:31:55;-4.20;60.90
81524;DHT22;70954;49.500;10.416;2024-01-11T02:34:21;-4.20;61.00
81524;DHT22;70954;49.500;10.416;2024-01-11T02:36:46;-4.20;61.00
81524;DHT22;70954;49.500;10.416;2024-01-11T02:39:13;-4.20;61.00
81524;DHT22;70954;49.500;10.416;2024-01-11T02:41:41;-4.20;61.00
81524;DHT22;70954;49.500;10.416;2024-01-11T02:44:06;-4.20;61.10
81524;DHT22;70954;49.500;10.416;2024-01-11T02:46:32;-4.30;61.00
81524;DHT22;70954;49.500;10.416;2024-01-11T02:48:57;-4.30;61.10
81524;DHT22;70954;49.500;10.416;2024-01-11T02:51:23;-4.30;61.10
81524;DHT22;70954;49.500;10.416;2024-01-11T02:53:48;-4.30;61.20
81524;DHT22;70954;49.500;10.416;2024-01-11T02:56:14;-4.30;61.20
81524;DHT22;70954;49.500;10.416;2024-01-11T02:58:39;-4.30;61.20
81524;DHT22;70954;49.500;10.416;2024-01-11T03:01:05;-4.30;61.20
81524;DHT22;70954;49.500;10.416;2024-01-11T03:03:30;-4.30;61.20
81524;DHT22;70954;49.500;10.416;2024-01-11T03:05:55;-4.30;61.20
81524;DHT22;70954;49.500;10.416;2024-01-11T03:08:21;-4.40;61.20
81524;DHT22;70954;49.500;10.416;2024-01-11T03:10:46;-4.40;61.20
81524;DHT22;70954;49.500;10.416;2024-01-11T03:13:12;-4.40;61.20
81524;DHT22;70954;49.500;10.416;2024-01-11T03:15:37;-4.40;61.20
81524;DHT22;70954;49.500;10.416;2024-01-11T03:18:03;-4.40;61.20
81524;DHT22;70954;49.500;10.416;2024-01-11T03:20:28;-4.40;61.30
81524;DHT22;70954;49.500;10.416;2024-01-11T03:22:54;-4.40;61.20
81524;DHT22;70954;49.500;10.416;2024-01-11T03:25:19;-4.40;61.20
81524;DHT22;70954;49.500;10.416;2024-01-11T03:27:45;-4.50;61.20
81524;DHT22;70954;49.500;10.416;2024-01-11T03:30:11;-4.50;61.30
81524;DHT22;70954;49.500;10.416;2024-01-11T03:32:36;-4.50;61.20
81524;DHT22;70954;49.500;10.416;2024-01-11T03:35:02;-4.60;61.20
81524;DHT22;70954;49.500;10.416;2024-01-11T03:37:28;-4.60;61.30
81524;DHT22;70954;49.500;10.416;2024-01-11T03:39:53;-4.60;61.30
81524;DHT22;70954;49.500;10.416;2024-01-11T03:42:18;-4.60;61.30
81524;DHT22;70954;49.500;10.416;2024-01-11T03:44:44;-4.60;61.30
81524;DHT22;70954;49.500;10.416;2024-01-11T03:47:09;-4.60;61.30
81524;DHT22;70954;49.500;10.416;2024-01-11T03:49:35;-4.60;61.30
81524;DHT22;70954;49.500;10.416;2024-01-11T03:52:00;-4.60;61.20
81524;DHT22;70954;49.500;10.416;2024-01-11T03:54:26;-4.60;61.20
81524;DHT22;70954;49.500;10.416;2024-01-11T03:56:51;-4.60;61.20
81524;DHT22;70954;49.500;10.416;2024-01-11T03:59:16;-4.70;61.30
81524;DHT22;70954;49.500;10.416;2024-01-11T04:01:42;-4.70;61.30
81524;DHT22;70954;49.500;10.416;2024-01-11T04:04:08;-4.70;61.20
81524;DHT22;70954;49.500;10.416;2024-01-11T04:06:34;-4.80;61.20
81524;DHT22;70954;49.500;10.416;2024-01-11T04:08:59;-4.80;61.30
81524;DHT22;70954;49.500;10.416;2024-01-11T04:11:28;-4.80;61.20
81524;DHT22;70954;49.500;10.416;2024-01-11T04:13:54;-4.90;61.30
81524;DHT22;70954;49.500;10.416;2024-01-11T04:16:20;-4.90;61.30
81524;DHT22;70954;49.500;10.416;2024-01-11T04:18:46;-4.90;61.50
81524;DHT22;70954;49.500;10.416;2024-01-11T04:21:25;-4.90;61.50
81524;DHT22;70954;49.500;10.416;2024-01-11T04:23:51;-4.90;61.60
81524;DHT22;70954;49.500;10.416;2024-01-11T04:26:19;-5.00;61.70
81524;DHT22;70954;49.500;10.416;2024-01-11T04:28:48;-5.00;61.70
81524;DHT22;70954;49.500;10.416;2024-01-11T04:31:15;-5.00;61.80
81524;DHT22;70954;49.500;10.416;2024-01-11T04:33:41;-5.00;61.90
81524;DHT22;70954;49.500;10.416;2024-01-11T04:36:07;-5.00;61.80
81524;DHT22;70954;49.500;10.416;2024-01-11T04:38:32;-5.00;62.00
81524;DHT22;70954;49.500;10.416;2024-01-11T04:40:58;-5.00;62.00
81524;DHT22;70954;49.500;10.416;2024-01-11T04:43:23;-5.00;62.00
81524;DHT22;70954;49.500;10.416;2024-01-11T04:45:48;-5.10;62.10
81524;DHT22;70954;49.500;10.416;2024-01-11T04:48:14;-5.00;62.10
81524;DHT22;70954;49.500;10.416;2024-01-11T04:50:39;-5.00;62.10
81524;DHT22;70954;49.500;10.416;2024-01-11T04:53:05;-5.00;62.20
81524;DHT22;70954;49.500;10.416;2024-01-11T04:55:30;-5.10;62.20
81524;DHT22;70954;49.500;10.416;2024-01-11T04:57:56;-5.10;62.00
81524;DHT22;70954;49.500;10.416;2024-01-11T05:00:21;-5.10;62.00
81524;DHT22;70954;49.500;10.416;2024-01-11T05:02:46;-5.10;62.00
81524;DHT22;70954;49.500;10.416;2024-01-11T05:05:12;-5.10;61.90
81524;DHT22;70954;49.500;10.416;2024-01-11T05:07:37;-5.20;61.90
81524;DHT22;70954;49.500;10.416;2024-01-11T05:10:03;-5.20;61.90
81524;DHT22;70954;49.500;10.416;2024-01-11T05:12:29;-5.20;61.80
81524;DHT22;70954;49.500;10.416;2024-01-11T05:14:54;-5.20;61.90
81524;DHT22;70954;49.500;10.416;2024-01-11T05:17:19;-5.20;61.90
81524;DHT22;70954;49.500;10.416;2024-01-11T05:19:45;-5.30;61.90
81524;DHT22;70954;49.500;10.416;2024-01-11T05:22:10;-5.40;62.00
81524;DHT22;70954;49.500;10.416;2024-01-11T05:24:36;-5.40;62.00
81524;DHT22;70954;49.500;10.416;2024-01-11T05:27:01;-5.40;62.00
81524;DHT22;70954;49.500;10.416;2024-01-11T05:29:27;-5.40;62.10
81524;DHT22;70954;49.500;10.416;2024-01-11T05:31:52;-5.40;62.10
81524;DHT22;70954;49.500;10.416;2024-01-11T05:34:17;-5.40;62.20
81524;DHT22;70954;49.500;10.416;2024-01-11T05:36:43;-5.40;62.20
81524;DHT22;70954;49.500;10.416;2024-01-11T05:39:08;-5.40;62.20
81524;DHT22;70954;49.500;10.416;2024-01-11T05:41:34;-5.40;62.30
81524;DHT22;70954;49.500;10.416;2024-01-11T05:43:59;-5.50;62.40
81524;DHT22;70954;49.500;10.416;2024-01-11T05:46:25;-5.50;62.40
81524;DHT22;70954;49.500;10.416;2024-01-11T05:48:50;-5.50;62.40
81524;DHT22;70954;49.500;10.416;2024-01-11T05:51:15;-5.50;62.40
81524;DHT22;70954;49.500;10.416;2024-01-11T05:53:41;-5.50;62.30
81524;DHT22;70954;49.500;10.416;2024-01-11T05:56:10;-5.60;62.30
81524;DHT22;70954;49.500;10.416;2024-01-11T05:58:36;-5.60;62.40
81524;DHT22;70954;49.500;10.416;2024-01-11T06:01:02;-5.60;62.30
81524;DHT22;70954;49.500;10.416;2024-01-11T06:03:28;-5.60;62.50
81524;DHT22;70954;49.500;10.416;2024-01-11T06:05:53;-5.60;62.50
81524;DHT22;70954;49.500;10.416;2024-01-11T06:08:18;-5.60;62.50
81524;DHT22;70954;49.500;10.416;2024-01-11T06:10:44;-5.60;62.60
81524;DHT22;70954;49.500;10.416;2024-01-11T06:13:09;-5.60;62.50
81524;DHT22;70954;49.500;10.416;2024-01-11T06:15:35;-5.60;62.50
81524;DHT22;70954;49.500;10.416;2024-01-11T06:18:00;-5.60;62.60
81524;DHT22;70954;49.500;10.416;2024-01-11T06:20:26;-5.60;62.60
81524;DHT22;70954;49.500;10.416;2024-01-11T06:22:51;-5.60;62.70
81524;DHT22;70954;49.500;10.416;2024-01-11T06:25:17;-5.60;62.90
81524;DHT22;70954;49.500;10.416;2024-01-11T06:27:43;-5.60;62.90
81524;DHT22;70954;49.500;10.416;2024-01-11T06:30:08;-5.60;62.90
81524;DHT22;70954;49.500;10.416;2024-01-11T06:32:34;-5.60;62.90
81524;DHT22;70954;49.500;10.416;2024-01-11T06:34:59;-5.60;62.90
81524;DHT22;70954;49.500;10.416;2024-01-11T06:37:25;-5.60;62.90
81524;DHT22;70954;49.500;10.416;2024-01-11T06:39:50;-5.60;62.80
81524;DHT22;70954;49.500;10.416;2024-01-11T06:42:16;-5.60;62.80
81524;DHT22;70954;49.500;10.416;2024-01-11T06:44:41;-5.60;62.90
81524;DHT22;70954;49.500;10.416;2024-01-11T06:47:06;-5.60;62.90
81524;DHT22;70954;49.500;10.416;2024-01-11T06:49:33;-5.60;62.90
81524;DHT22;70954;49.500;10.416;2024-01-11T06:51:58;-5.60;62.90
81524;DHT22;70954;49.500;10.416;2024-01-11T06:54:24;-5.60;62.90
81524;DHT22;70954;49.500;10.416;2024-01-11T06:56:49;-5.60;63.00
81524;DHT22;70954;49.500;10.416;2024-01-11T06:59:15;-5.60;63.00
81524;DHT22;70954;49.500;10.416;2024-01-11T07:01:40;-5.60;63.10
81524;DHT22;70954;49.500;10.416;2024-01-11T07:04:05;-5.60;63.10
81524;DHT22;70954;49.500;10.416;2024-01-11T07:06:31;-5.60;63.20
81524;DHT22;70954;49.500;10.416;2024-01-11T07:08:56;-5.50;63.10
81524;DHT22;70954;49.500;10.416;2024-01-11T07:11:22;-5.50;63.00
81524;DHT22;70954;49.500;10.416;2024-01-11T07:13:47;-5.50;63.00
81524;DHT22;70954;49.500;10.416;2024-01-11T07:16:13;-5.60;62.90
81524;DHT22;70954;49.500;10.416;2024-01-11T07:18:38;-5.60;62.90
81524;DHT22;70954;49.500;10.416;2024-01-11T07:21:04;-5.60;62.80
81524;DHT22;70954;49.500;10.416;2024-01-11T07:23:29;-5.60;62.70
81524;DHT22;70954;49.500;10.416;2024-01-11T07:25:54;-5.60;62.70
81524;DHT22;70954;49.500;10.416;2024-01-11T07:28:20;-5.60;62.80
81524;DHT22;70954;49.500;10.416;2024-01-11T07:30:46;-5.60;62.70
81524;DHT22;70954;49.500;10.416;2024-01-11T07:33:11;-5.60;62.80
81524;DHT22;70954;49.500;10.416;2024-01-11T07:35:37;-5.60;62.80
81524;DHT22;70954;49.500;10.416;2024-01-11T07:38:02;-5.70;62.80
81524;DHT22;70954;49.500;10.416;2024-01-11T07:40:28;-5.60;62.80
81524;DHT22;70954;49.500;10.416;2024-01-11T07:42:53;-5.70;62.90
81524;DHT22;70954;49.500;10.416;2024-01-11T07:45:18;-5.70;63.00
81524;DHT22;70954;49.500;10.416;2024-01-11T07:47:44;-5.70;63.10
81524;DHT22;70954;49.500;10.416;2024-01-11T07:50:10;-5.70;63.20
81524;DHT22;70954;49.500;10.416;2024-01-11T07:52:35;-5.60;63.30
81524;DHT22;70954;49.500;10.416;2024-01-11T07:55:01;-5.60;63.30
81524;DHT22;70954;49.500;10.416;2024-01-11T07:57:26;-5.60;63.30
81524;DHT22;70954;49.500;10.416;2024-01-11T07:59:52;-5.60;63.30
81524;DHT22;70954;49.500;10.416;2024-01-11T08:02:17;-5.60;63.30
81524;DHT22;70954;49.500;10.416;2024-01-11T08:04:43;-5.60;63.30
81524;DHT22;70954;49.500;10.416;2024-01-11T08:07:08;-5.60;63.40
81524;DHT22;70954;49.500;10.416;2024-01-11T08:09:34;-5.60;63.40
81524;DHT22;70954;49.500;10.416;2024-01-11T08:11:59;-5.60;63.40
81524;DHT22;70954;49.500;10.416;2024-01-11T08:14:24;-5.60;63.60
81524;DHT22;70954;49.500;10.416;2024-01-11T08:16:50;-5.60;63.60
81524;DHT22;70954;49.500;10.416;2024-01-11T08:19:15;-5.50;63.70
81524;DHT22;70954;49.500;10.416;2024-01-11T08:21:41;-5.40;63.70
81524;DHT22;70954;49.500;10.416;2024-01-11T08:24:07;-5.40;63.90
81524;DHT22;70954;49.500;10.416;2024-01-11T08:26:33;-5.40;63.80
81524;DHT22;70954;49.500;10.416;2024-01-11T08:28:59;-5.40;63.90
81524;DHT22;70954;49.500;10.416;2024-01-11T08:31:25;-5.40;64.00
81524;DHT22;70954;49.500;10.416;2024-01-11T08:33:50;-5.20;64.00
81524;DHT22;70954;49.500;10.416;2024-01-11T08:36:16;-5.20;64.00
81524;DHT22;70954;49.500;10.416;2024-01-11T08:38:41;-5.20;64.10
81524;DHT22;70954;49.500;10.416;2024-01-11T08:41:07;-5.20;64.10
81524;DHT22;70954;49.500;10.416;2024-01-11T08:43:32;-5.10;64.30
81524;DHT22;70954;49.500;10.416;2024-01-11T08:45:58;-5.10;64.30
81524;DHT22;70954;49.500;10.416;2024-01-11T08:48:24;-5.00;64.80
81524;DHT22;70954;49.500;10.416;2024-01-11T08:50:50;-5.00;64.60
81524;DHT22;70954;49.500;10.416;2024-01-11T08:53:15;-5.00;64.50
81524;DHT22;70954;49.500;10.416;2024-01-11T08:55:41;-4.90;64.50
81524;DHT22;70954;49.500;10.416;2024-01-11T08:58:06;-4.90;64.70
81524;DHT22;70954;49.500;10.416;2024-01-11T09:00:32;-4.90;64.80
81524;DHT22;70954;49.500;10.416;2024-01-11T09:02:57;-4.80;65.00
81524;DHT22;70954;49.500;10.416;2024-01-11T09:05:23;-4.80;65.00
81524;DHT22;70954;49.500;10.416;2024-01-11T09:07:48;-4.80;65.10
81524;DHT22;70954;49.500;10.416;2024-01-11T09:10:14;-4.60;65.00
81524;DHT22;70954;49.500;10.416;2024-01-11T09:12:39;-4.60;65.20
81524;DHT22;70954;49.500;10.416;2024-01-11T09:15:05;-4.60;65.40
81524;DHT22;70954;49.500;10.416;2024-01-11T09:17:31;-4.60;65.30
81524;DHT22;70954;49.500;10.416;2024-01-11T09:19:56;-4.50;65.10
81524;DHT22;70954;49.500;10.416;2024-01-11T09:22:22;-4.40;65.00
81524;DHT22;70954;49.500;10.416;2024-01-11T09:24:47;-4.40;65.20
81524;DHT22;70954;49.500;10.416;2024-01-11T09:27:13;-4.30;65.10
81524;DHT22;70954;49.500;10.416;2024-01-11T09:29:45;-4.30;65.10
81524;DHT22;70954;49.500;10.416;2024-01-11T09:32:11;-4.20;65.10
81524;DHT22;70954;49.500;10.416;2024-01-11T09:34:37;-4.10;65.10
81524;DHT22;70954;49.500;10.416;2024-01-11T09:37:03;-4.00;65.00
81524;DHT22;70954;49.500;10.416;2024-01-11T09:39:28;-4.00;65.00
81524;DHT22;70954;49.500;10.416;2024-01-11T09:42:12;-3.80;64.90
81524;DHT22;70954;49.500;10.416;2024-01-11T09:44:38;-3.80;64.90
81524;DHT22;70954;49.500;10.416;2024-01-11T09:47:04;-3.70;64.80
81524;DHT22;70954;49.500;10.416;2024-01-11T09:49:32;-3.60;64.80
81524;DHT22;70954;49.500;10.416;2024-01-11T09:52:00;-3.50;64.70
81524;DHT22;70954;49.500;10.416;2024-01-11T09:54:26;-3.40;64.80
81524;DHT22;70954;49.500;10.416;2024-01-11T09:56:54;-3.40;64.70
81524;DHT22;70954;49.500;10.416;2024-01-11T09:59:21;-3.20;64.50
81524;DHT22;70954;49.500;10.416;2024-01-11T10:01:46;-3.20;64.50
81524;DHT22;70954;49.500;10.416;2024-01-11T10:04:14;-3.10;64.50
81524;DHT22;70954;49.500;10.416;2024-01-11T10:06:41;-3.00;64.40
81524;DHT22;70954;49.500;10.416;2024-01-11T10:09:07;-2.90;64.30
81524;DHT22;70954;49.500;10.416;2024-01-11T10:11:32;-2.80;64.30
81524;DHT22;70954;49.500;10.416;2024-01-11T10:13:58;-2.70;64.30
81524;DHT22;70954;49.500;10.416;2024-01-11T10:16:23;-2.60;64.30
81524;DHT22;70954;49.500;10.416;2024-01-11T10:18:49;-2.50;64.20
81524;DHT22;70954;49.500;10.416;2024-01-11T10:21:14;-2.40;64.10
81524;DHT22;70954;49.500;10.416;2024-01-11T10:23:39;-2.40;64.00
81524;DHT22;70954;49.500;10.416;2024-01-11T10:26:05;-2.20;63.70
81524;DHT22;70954;49.500;10.416;2024-01-11T10:28:30;-2.20;63.60
81524;DHT22;70954;49.500;10.416;2024-01-11T10:30:56;-2.10;63.40
81524;DHT22;70954;49.500;10.416;2024-01-11T10:33:22;-2.10;63.40
81524;DHT22;70954;49.500;10.416;2024-01-11T10:35:48;-2.00;63.30
81524;DHT22;70954;49.500;10.416;2024-01-11T10:38:15;-1.90;63.20
81524;DHT22;70954;49.500;10.416;2024-01-11T10:40:42;-1.80;63.10
81524;DHT22;70954;49.500;10.416;2024-01-11T10:43:09;-1.80;63.20
81524;DHT22;70954;49.500;10.416;2024-01-11T10:45:35;-1.70;63.10
81524;DHT22;70954;49.500;10.416;2024-01-11T10:48:01;-1.60;63.00
81524;DHT22;70954;49.500;10.416;2024-01-11T10:50:30;-1.60;63.00
81524;DHT22;70954;49.500;10.416;2024-01-11T10:53:02;-1.50;62.90
81524;DHT22;70954;49.500;10.416;2024-01-11T10:55:28;-1.50;62.90
81524;DHT22;70954;49.500;10.416;2024-01-11T10:57:54;-1.40;62.80
81524;DHT22;70954;49.500;10.416;2024-01-11T11:00:21;-1.30;62.70
81524;DHT22;70954;49.500;10.416;2024-01-11T11:02:47;-1.30;62.70
81524;DHT22;70954;49.500;10.416;2024-01-11T11:05:13;-1.20;62.60
81524;DHT22;70954;49.500;10.416;2024-01-11T11:07:40;-1.10;62.60
81524;DHT22;70954;49.500;10.416;2024-01-11T11:10:06;-1.10;62.60
81524;DHT22;70954;49.500;10.416;2024-01-11T11:12:35;-1.00;62.50
81524;DHT22;70954;49.500;10.416;2024-01-11T11:15:02;-1.00;62.30
81524;DHT22;70954;49.500;10.416;2024-01-11T11:17:27;-0.90;62.30
81524;DHT22;70954;49.500;10.416;2024-01-11T11:19:53;-0.90;62.20
81524;DHT22;70954;49.500;10.416;2024-01-11T11:22:19;-0.70;62.20
81524;DHT22;70954;49.500;10.416;2024-01-11T11:24:45;-0.70;62.10
81524;DHT22;70954;49.500;10.416;2024-01-11T11:27:13;-0.70;62.10
81524;DHT22;70954;49.500;10.416;2024-01-11T11:29:39;-0.60;62.00
81524;DHT22;70954;49.500;10.416;2024-01-11T11:32:05;-0.60;61.90
81524;DHT22;70954;49.500;10.416;2024-01-11T11:34:43;-0.50;61.80
81524;DHT22;70954;49.500;10.416;2024-01-11T11:37:09;-0.40;61.70
81524;DHT22;70954;49.500;10.416;2024-01-11T11:39:34;-0.40;61.60
81524;DHT22;70954;49.500;10.416;2024-01-11T11:42:00;-0.30;61.60
81524;DHT22;70954;49.500;10.416;2024-01-11T11:44:25;-0.30;61.50
81524;DHT22;70954;49.500;10.416;2024-01-11T11:46:51;-0.20;61.40
81524;DHT22;70954;49.500;10.416;2024-01-11T11:49:17;-0.20;61.30
81524;DHT22;70954;49.500;10.416;2024-01-11T11:51:43;-0.10;61.20
81524;DHT22;70954;49.500;10.416;2024-01-11T11:54:08;-0.10;61.20
81524;DHT22;70954;49.500;10.416;2024-01-11T11:56:34;-0.10;61.10
81524;DHT22;70954;49.500;10.416;2024-01-11T11:59:02;-0.10;61.00
81524;DHT22;70954;49.500;10.416;2024-01-11T12:01:28;0.00;60.90
81524;DHT22;70954;49.500;10.416;2024-01-11T12:03:54;0.00;60.90
81524;DHT22;70954;49.500;10.416;2024-01-11T12:06:20;0.00;60.80
81524;DHT22;70954;49.500;10.416;2024-01-11T12:08:47;0.00;60.80
81524;DHT22;70954;49.500;10.416;2024-01-11T12:11:14;0.00;60.70
81524;DHT22;70954;49.500;10.416;2024-01-11T12:13:40;0.10;60.70
81524;DHT22;70954;49.500;10.416;2024-01-11T12:16:05;0.20;60.70
81524;DHT22;70954;49.500;10.416;2024-01-11T12:18:31;0.20;60.60
81524;DHT22;70954;49.500;10.416;2024-01-11T12:20:56;0.30;60.60
81524;DHT22;70954;49.500;10.416;2024-01-11T12:23:22;0.30;60.50
81524;DHT22;70954;49.500;10.416;2024-01-11T12:25:48;0.40;60.50
81524;DHT22;70954;49.500;10.416;2024-01-11T12:28:13;0.40;60.50
81524;DHT22;70954;49.500;10.416;2024-01-11T12:30:39;0.40;60.50
81524;DHT22;70954;49.500;10.416;2024-01-11T12:33:05;0.50;60.40
81524;DHT22;70954;49.500;10.416;2024-01-11T12:35:31;0.50;60.30
81524;DHT22;70954;49.500;10.416;2024-01-11T12:38:05;0.60;60.30
81524;DHT22;70954;49.500;10.416;2024-01-11T12:40:35;0.60;60.20
81524;DHT22;70954;49.500;10.416;2024-01-11T12:43:01;0.60;60.20
81524;DHT22;70954;49.500;10.416;2024-01-11T12:45:27;0.60;60.10
81524;DHT22;70954;49.500;10.416;2024-01-11T12:47:52;0.70;60.00
81524;DHT22;70954;49.500;10.416;2024-01-11T12:50:18;0.70;60.00
81524;DHT22;70954;49.500;10.416;2024-01-11T12:52:43;0.80;59.90
81524;DHT22;70954;49.500;10.416;2024-01-11T12:55:18;0.80;59.80
81524;DHT22;70954;49.500;10.416;2024-01-11T12:57:44;0.80;59.60
81524;DHT22;70954;49.500;10.416;2024-01-11T13:00:11;0.80;59.60
81524;DHT22;70954;49.500;10.416;2024-01-11T13:02:37;0.90;59.50
81524;DHT22;70954;49.500;10.416;2024-01-11T13:05:03;0.90;59.60
81524;DHT22;70954;49.500;10.416;2024-01-11T13:07:30;1.00;59.50
81524;DHT22;70954;49.500;10.416;2024-01-11T13:09:55;1.00;59.50
81524;DHT22;70954;49.500;10.416;2024-01-11T13:12:21;1.00;59.40
81524;DHT22;70954;49.500;10.416;2024-01-11T13:14:46;1.00;59.30
81524;DHT22;70954;49.500;10.416;2024-01-11T13:17:12;1.10;59.30
81524;DHT22;70954;49.500;10.416;2024-01-11T13:19:37;1.10;59.30
81524;DHT22;70954;49.500;10.416;2024-01-11T13:22:03;1.10;59.30
81524;DHT22;70954;49.500;10.416;2024-01-11T13:24:28;1.10;59.30
81524;DHT22;70954;49.500;10.416;2024-01-11T13:26:54;1.20;59.20
81524;DHT22;70954;49.500;10.416;2024-01-11T13:29:19;1.20;59.20
81524;DHT22;70954;49.500;10.416;2024-01-11T13:31:44;1.30;59.30
81524;DHT22;70954;49.500;10.416;2024-01-11T13:34:10;1.30;59.30
81524;DHT22;70954;49.500;10.416;2024-01-11T13:36:35;1.40;59.20
81524;DHT22;70954;49.500;10.416;2024-01-11T13:39:01;1.40;59.10
81524;DHT22;70954;49.500;10.416;2024-01-11T13:41:26;1.40;59.10
81524;DHT22;70954;49.500;10.416;2024-01-11T13:43:52;1.40;59.00
81524;DHT22;70954;49.500;10.416;2024-01-11T13:46:17;1.50;59.00
81524;DHT22;70954;49.500;10.416;2024-01-11T13:48:42;1.50;58.90
81524;DHT22;70954;49.500;10.416;2024-01-11T13:51:08;1.60;58.90
81524;DHT22;70954;49.500;10.416;2024-01-11T13:53:33;1.60;58.90
81524;DHT22;70954;49.500;10.416;2024-01-11T13:55:59;1.70;58.70
81524;DHT22;70954;49.500;10.416;2024-01-11T13:58:24;1.70;58.70
81524;DHT22;70954;49.500;10.416;2024-01-11T14:00:50;1.70;58.60
81524;DHT22;70954;49.500;10.416;2024-01-11T14:03:15;1.70;58.40
81524;DHT22;70954;49.500;10.416;2024-01-11T14:05:41;1.70;58.30
81524;DHT22;70954;49.500;10.416;2024-01-11T14:08:06;1.70;58.20
81524;DHT22;70954;49.500;10.416;2024-01-11T14:10:32;1.70;58.20
81524;DHT22;70954;49.500;10.416;2024-01-11T14:12:59;1.80;58.00
81524;DHT22;70954;49.500;10.416;2024-01-11T14:15:24;1.80;58.20
81524;DHT22;70954;49.500;10.416;2024-01-11T14:17:50;1.80;58.10
81524;DHT22;70954;49.500;10.416;2024-01-11T14:20:15;1.80;58.00
81524;DHT22;70954;49.500;10.416;2024-01-11T14:22:42;1.80;57.90
81524;DHT22;70954;49.500;10.416;2024-01-11T14:25:08;1.80;57.80
81524;DHT22;70954;49.500;10.416;2024-01-11T14:27:34;1.90;57.90
81524;DHT22;70954;49.500;10.416;2024-01-11T14:29:59;1.90;58.00
81524;DHT22;70954;49.500;10.416;2024-01-11T14:32:25;1.90;58.00
81524;DHT22;70954;49.500;10.416;2024-01-11T14:34:50;2.00;57.80
81524;DHT22;70954;49.500;10.416;2024-01-11T14:37:16;2.00;57.70
81524;DHT22;70954;49.500;10.416;2024-01-11T14:39:41;2.00;57.70
81524;DHT22;70954;49.500;10.416;2024-01-11T14:42:06;2.00;57.50
81524;DHT22;70954;49.500;10.416;2024-01-11T14:44:32;2.00;57.60
81524;DHT22;70954;49.500;10.416;2024-01-11T14:46:57;2.00;57.70
81524;DHT22;70954;49.500;10.416;2024-01-11T14:49:23;1.90;57.60
81524;DHT22;70954;49.500;10.416;2024-01-11T14:51:49;1.90;57.40
81524;DHT22;70954;49.500;10.416;2024-01-11T14:54:14;1.90;57.60
81524;DHT22;70954;49.500;10.416;2024-01-11T14:56:40;1.90;57.50
81524;DHT22;70954;49.500;10.416;2024-01-11T14:59:05;1.90;57.50
81524;DHT22;70954;49.500;10.416;2024-01-11T15:01:30;1.90;57.60
81524;DHT22;70954;49.500;10.416;2024-01-11T15:03:56;1.90;57.60
81524;DHT22;70954;49.500;10.416;2024-01-11T15:06:21;1.80;57.60
81524;DHT22;70954;49.500;10.416;2024-01-11T15:08:47;1.80;57.50
81524;DHT22;70954;49.500;10.416;2024-01-11T15:11:12;1.80;57.40